sensor_id;sensor_type;location;lat;lon;timestamp;pressure;altitude;pressure_sealevel;temperature;humidity
59170;BME280;52474;52.236;5.114;2024-03-02T00:01:30;99738.78;;;8.09;100.00
59170;BME280;52474;52.236;5.114;2024-03-02T00:03:55;99741.31;;;8.11;100.00
59170;BME280;52474;52.236;5.114;2024-03-02T00:06:21;99756.69;;;8.15;100.00
59170;BME280;52474;52.236;5.114;2024-03-02T00:08:47;99774.59;;;8.12;100.00
59170;BME280;52474;52.236;5.114;2024-03-02T00:11:12;99770.84;;;8.14;100.00
59170;BME280;52474;52.236;5.114;2024-03-02T00:13:40;99779.22;;;8.10;100.00
59170;BME280;52474;52.236;5.114;2024-03-02T00:16:06;99810.00;;;8.09;100.00
59170;BME280;52474;52.236;5.114;2024-03-02T00:18:34;99825.41;;;7.94;100.00
59170;BME280;52474;52.236;5.114;2024-03-02T00:21:00;99845.69;;;7.94;100.00
59170;BME280;52474;52.236;5.114;2024-03-02T00:23:29;99857.47;;;7.90;100.00
59170;BME280;52474;52.236;5.114;2024-03-02T00:25:56;99869.38;;;7.74;100.00
59170;BME280;52474;52.236;5.114;2024-03-02T00:28:29;99870.75;;;7.59;100.00
59170;BME280;52474;52.236;5.114;2024-03-02T00:33:52;99852.47;;;7.17;100.00
59170;BME280;52474;52.236;5.114;2024-03-02T00:36:22;99858.25;;;7.11;100.00
59170;BME280;52474;52.236;5.114;2024-03-02T00:38:51;99863.38;;;7.03;100.00
59170;BME280;52474;52.236;5.114;2024-03-02T00:41:29;99869.28;;;6.95;100.00
59170;BME280;52474;52.236;5.114;2024-03-02T00:44:06;99849.16;;;6.84;100.00
59170;BME280;52474;52.236;5.114;2024-03-02T00:46:34;99853.72;;;6.82;100.00
59170;BME280;52474;52.236;5.114;2024-03-02T00:49:01;99856.31;;;6.73;100.00
59170;BME280;52474;52.236;5.114;2024-03-02T00:51:29;99863.88;;;6.66;100.00
59170;BME280;52474;52.236;5.114;2024-03-02T00:53:59;99863.75;;;6.68;100.00
59170;BME280;52474;52.236;5.114;2024-03-02T00:56:25;99860.69;;;6.62;100.00
59170;BME280;52474;52.236;5.114;2024-03-02T00:58:52;99861.34;;;6.55;100.00
59170;BME280;52474;52.236;5.114;2024-03-02T01:01:18;99882.22;;;6.56;100.00
59170;BME280;52474;52.236;5.114;2024-03-02T01:03:45;99872.94;;;6.52;100.00
59170;BME280;52474;52.236;5.114;2024-03-02T01:06:11;99859.31;;;6.47;100.00
59170;BME280;52474;52.236;5.114;2024-03-02T01:08:37;99858.75;;;6.43;100.00
59170;BME280;52474;52.236;5.114;2024-03-02T01:11:03;99866.53;;;6.45;100.00
59170;BME280;52474;52.236;5.114;2024-03-02T01:13:29;99857.56;;;6.48;100.00
59170;BME280;52474;52.236;5.114;2024-03-02T01:15:55;99861.94;;;6.47;100.00
59170;BME280;52474;52.236;5.114;2024-03-02T01:18:21;99877.16;;;6.43;100.00
59170;BME280;52474;52.236;5.114;2024-03-02T01:20:48;99888.25;;;6.47;100.00
59170;BME280;52474;52.236;5.114;2024-03-02T01:23:13;99884.50;;;6.40;100.00
59170;BME280;52474;52.236;5.114;2024-03-02T01:25:39;99881.34;;;6.46;100.00
59170;BME280;52474;52.236;5.114;2024-03-02T01:28:05;99880.63;;;6.44;100.00
59170;BME280;52474;52.236;5.114;2024-03-02T01:30:31;99895.31;;;6.47;100.00
59170;BME280;52474;52.236;5.114;2024-03-02T01:32:56;99889.22;;;6.46;100.00
59170;BME280;52474;52.236;5.114;2024-03-02T01:35:24;99885.06;;;6.43;100.00
59170;BME280;52474;52.236;5.114;2024-03-02T01:37:50;99881.34;;;6.46;100.00
59170;BME280;52474;52.236;5.114;2024-03-02T01:40:16;99884.09;;;6.44;100.00
59170;BME280;52474;52.236;5.114;2024-03-02T01:42:43;99882.31;;;6.45;100.00
59170;BME280;52474;52.236;5.114;2024-03-02T01:45:08;99883.25;;;6.44;100.00
59170;BME280;52474;52.236;5.114;2024-03-02T01:47:34;99877.16;;;6.43;100.00
59170;BME280;52474;52.236;5.114;2024-03-02T01:50:00;99878.53;;;6.38;100.00
59170;BME280;52474;52.236;5.114;2024-03-02T01:52:27;99884.00;;;6.35;100.00
59170;BME280;52474;52.236;5.114;2024-03-02T01:54:53;99883.34;;;6.33;100.00
59170;BME280;52474;52.236;5.114;2024-03-02T01:57:19;99903.41;;;6.34;100.00
59170;BME280;52474;52.236;5.114;2024-03-02T01:59:46;99910.13;;;6.27;100.00
59170;BME280;52474;52.236;5.114;2024-03-02T02:02:14;99910.13;;;6.27;100.00
59170;BME280;52474;52.236;5.114;2024-03-02T02:04:40;99910.94;;;6.27;100.00
59170;BME280;52474;52.236;5.114;2024-03-02T02:07:06;99901.41;;;6.26;100.00
59170;BME280;52474;52.236;5.114;2024-03-02T02:09:32;99895.56;;;6.22;100.00
59170;BME280;52474;52.236;5.114;2024-03-02T02:11:58;99895.31;;;6.26;100.00
59170;BME280;52474;52.236;5.114;2024-03-02T02:14:24;99892.91;;;6.22;100.00
59170;BME280;52474;52.236;5.114;2024-03-02T02:16:49;99902.88;;;6.19;100.00
59170;BME280;52474;52.236;5.114;2024-03-02T02:19:15;99900.25;;;6.19;100.00
59170;BME280;52474;52.236;5.114;2024-03-02T02:21:44;99907.41;;;6.17;100.00
59170;BME280;52474;52.236;5.114;2024-03-02T02:24:10;99910.31;;;6.14;100.00
59170;BME280;52474;52.236;5.114;2024-03-02T02:26:38;99886.38;;;6.17;100.00
59170;BME280;52474;52.236;5.114;2024-03-02T02:29:04;99891.63;;;6.17;100.00
59170;BME280;52474;52.236;5.114;2024-03-02T02:31:39;99885.44;;;6.18;100.00
59170;BME280;52474;52.236;5.114;2024-03-02T02:34:06;99875.53;;;6.10;100.00
59170;BME280;52474;52.236;5.114;2024-03-02T02:36:32;99899.78;;;6.14;100.00
59170;BME280;52474;52.236;5.114;2024-03-02T02:39:02;99905.97;;;6.13;100.00
59170;BME280;52474;52.236;5.114;2024-03-02T02:41:29;99904.44;;;6.10;100.00
59170;BME280;52474;52.236;5.114;2024-03-02T02:43:55;99897.91;;;6.05;100.00
59170;BME280;52474;52.236;5.114;2024-03-02T02:46:21;99901.97;;;6.09;100.00
59170;BME280;52474;52.236;5.114;2024-03-02T02:48:46;99899.69;;;6.04;100.00
59170;BME280;52474;52.236;5.114;2024-03-02T02:51:12;99904.34;;;6.00;100.00
59170;BME280;52474;52.236;5.114;2024-03-02T02:53:38;99902.81;;;5.98;100.00
59170;BME280;52474;52.236;5.114;2024-03-02T02:56:08;99896.72;;;5.97;100.00
59170;BME280;52474;52.236;5.114;2024-03-02T02:58:34;99911.75;;;6.07;100.00
59170;BME280;52474;52.236;5.114;2024-03-02T03:01:01;99918.44;;;6.11;100.00
59170;BME280;52474;52.236;5.114;2024-03-02T03:03:26;99914.84;;;6.12;100.00
59170;BME280;52474;52.236;5.114;2024-03-02T03:05:52;99915.56;;;6.14;100.00
59170;BME280;52474;52.236;5.114;2024-03-02T03:08:18;99906.59;;;6.16;100.00
59170;BME280;52474;52.236;5.114;2024-03-02T03:10:43;99898.25;;;6.11;100.00
59170;BME280;52474;52.236;5.114;2024-03-02T03:13:10;99907.28;;;6.18;100.00
59170;BME280;52474;52.236;5.114;2024-03-02T03:15:36;99909.09;;;6.18;100.00
59170;BME280;52474;52.236;5.114;2024-03-02T03:18:03;99904.31;;;6.12;100.00
59170;BME280;52474;52.236;5.114;2024-03-02T03:20:29;99906.97;;;6.12;100.00
59170;BME280;52474;52.236;5.114;2024-03-02T03:22:56;99909.31;;;6.15;100.00
59170;BME280;52474;52.236;5.114;2024-03-02T03:25:21;99913.50;;;6.17;100.00
59170;BME280;52474;52.236;5.114;2024-03-02T03:27:47;99913.66;;;6.16;100.00
59170;BME280;52474;52.236;5.114;2024-03-02T03:30:12;99919.63;;;6.18;100.00
59170;BME280;52474;52.236;5.114;2024-03-02T03:32:38;99917.94;;;6.17;100.00
59170;BME280;52474;52.236;5.114;2024-03-02T03:35:04;99921.28;;;6.19;100.00
59170;BME280;52474;52.236;5.114;2024-03-02T03:37:30;99919.47;;;6.19;100.00
59170;BME280;52474;52.236;5.114;2024-03-02T03:39:59;99915.50;;;6.25;100.00
59170;BME280;52474;52.236;5.114;2024-03-02T03:42:24;99931.28;;;6.25;100.00
59170;BME280;52474;52.236;5.114;2024-03-02T03:44:50;99921.28;;;6.19;100.00
59170;BME280;52474;52.236;5.114;2024-03-02T03:47:16;99916.13;;;6.17;100.00
59170;BME280;52474;52.236;5.114;2024-03-02T03:49:41;99934.03;;;6.23;100.00
59170;BME280;52474;52.236;5.114;2024-03-02T03:52:07;99924.00;;;6.17;100.00
59170;BME280;52474;52.236;5.114;2024-03-02T03:54:33;99945.38;;;6.24;100.00
59170;BME280;52474;52.236;5.114;2024-03-02T03:56:58;99942.19;;;6.20;100.00
59170;BME280;52474;52.236;5.114;2024-03-02T03:59:24;99938.13;;;6.16;100.00
59170;BME280;52474;52.236;5.114;2024-03-02T04:01:50;99948.13;;;6.22;100.00
59170;BME280;52474;52.236;5.114;2024-03-02T04:04:15;99942.88;;;6.22;100.00
59170;BME280;52474;52.236;5.114;2024-03-02T04:06:41;99947.03;;;6.25;100.00
59170;BME280;52474;52.236;5.114;2024-03-02T04:09:07;99938.59;;;6.21;100.00
59170;BME280;52474;52.236;5.114;2024-03-02T04:11:32;99957.72;;;6.23;100.00
59170;BME280;52474;52.236;5.114;2024-03-02T04:13:58;99954.00;;;6.26;100.00
59170;BME280;52474;52.236;5.114;2024-03-02T04:16:24;99959.13;;;6.28;100.00
59170;BME280;52474;52.236;5.114;2024-03-02T04:18:49;99951.47;;;6.24;100.00
59170;BME280;52474;52.236;5.114;2024-03-02T04:21:15;99960.69;;;6.30;100.00
59170;BME280;52474;52.236;5.114;2024-03-02T04:23:40;99950.53;;;6.26;100.00
59170;BME280;52474;52.236;5.114;2024-03-02T04:26:06;99939.31;;;6.23;100.00
59170;BME280;52474;52.236;5.114;2024-03-02T04:28:32;99953.16;;;6.26;100.00
59170;BME280;52474;52.236;5.114;2024-03-02T04:30:58;99940.88;;;6.15;100.00
59170;BME280;52474;52.236;5.114;2024-03-02T04:33:24;99962.03;;;6.13;100.00
59170;BME280;52474;52.236;5.114;2024-03-02T04:35:49;99946.19;;;6.04;100.00
59170;BME280;52474;52.236;5.114;2024-03-02T04:38:15;99961.50;;;5.98;100.00
59170;BME280;52474;52.236;5.114;2024-03-02T04:40:41;99958.16;;;5.96;100.00
59170;BME280;52474;52.236;5.114;2024-03-02T04:43:06;99960.53;;;5.99;100.00
59170;BME280;52474;52.236;5.114;2024-03-02T04:45:34;99964.94;;;5.99;100.00
59170;BME280;52474;52.236;5.114;2024-03-02T04:48:00;99967.34;;;5.91;100.00
59170;BME280;52474;52.236;5.114;2024-03-02T04:50:25;99961.72;;;5.84;100.00
59170;BME280;52474;52.236;5.114;2024-03-02T04:52:51;99970.78;;;5.80;100.00
59170;BME280;52474;52.236;5.114;2024-03-02T04:55:16;99973.56;;;5.78;100.00
59170;BME280;52474;52.236;5.114;2024-03-02T04:57:43;99966.97;;;5.73;100.00
59170;BME280;52474;52.236;5.114;2024-03-02T05:00:09;99979.75;;;5.77;100.00
59170;BME280;52474;52.236;5.114;2024-03-02T05:02:35;99992.28;;;5.85;100.00
59170;BME280;52474;52.236;5.114;2024-03-02T05:05:01;99990.63;;;5.84;100.00
59170;BME280;52474;52.236;5.114;2024-03-02T05:07:28;99990.25;;;5.77;100.00
59170;BME280;52474;52.236;5.114;2024-03-02T05:09:53;99978.56;;;5.70;100.00
59170;BME280;52474;52.236;5.114;2024-03-02T05:12:19;99967.72;;;5.64;100.00
59170;BME280;52474;52.236;5.114;2024-03-02T05:15:03;99978.72;;;5.69;100.00
59170;BME280;52474;52.236;5.114;2024-03-02T05:17:29;99988.59;;;5.65;100.00
59170;BME280;52474;52.236;5.114;2024-03-02T05:19:55;99976.19;;;5.56;100.00
59170;BME280;52474;52.236;5.114;2024-03-02T05:22:20;99988.50;;;5.55;100.00
59170;BME280;52474;52.236;5.114;2024-03-02T05:24:46;99992.19;;;5.53;100.00
59170;BME280;52474;52.236;5.114;2024-03-02T05:27:11;99991.00;;;5.57;100.00
59170;BME280;52474;52.236;5.114;2024-03-02T05:29:37;99999.00;;;5.55;100.00
59170;BME280;52474;52.236;5.114;2024-03-02T05:32:03;99996.63;;;5.52;100.00
59170;BME280;52474;52.236;5.114;2024-03-02T05:34:28;99996.72;;;5.51;100.00
59170;BME280;52474;52.236;5.114;2024-03-02T05:36:56;99965.09;;;5.30;100.00
59170;BME280;52474;52.236;5.114;2024-03-02T05:39:23;100001.50;;;5.46;100.00
59170;BME280;52474;52.236;5.114;2024-03-02T05:41:48;100007.47;;;5.48;100.00
59170;BME280;52474;52.236;5.114;2024-03-02T05:44:14;100005.81;;;5.47;100.00
59170;BME280;52474;52.236;5.114;2024-03-02T05:46:41;100014.97;;;5.41;100.00
59170;BME280;52474;52.236;5.114;2024-03-02T05:49:08;100010.94;;;5.37;100.00
59170;BME280;52474;52.236;5.114;2024-03-02T05:51:35;100008.91;;;5.29;100.00
59170;BME280;52474;52.236;5.114;2024-03-02T05:54:02;100018.31;;;5.21;100.00
59170;BME280;52474;52.236;5.114;2024-03-02T05:56:28;100013.78;;;5.23;100.00
59170;BME280;52474;52.236;5.114;2024-03-02T05:58:54;100013.19;;;5.30;100.00
59170;BME280;52474;52.236;5.114;2024-03-02T06:01:39;100002.69;;;5.30;100.00
59170;BME280;52474;52.236;5.114;2024-03-02T06:04:04;100017.38;;;5.33;100.00
59170;BME280;52474;52.236;5.114;2024-03-02T06:06:30;100024.41;;;5.32;100.00
59170;BME280;52474;52.236;5.114;2024-03-02T06:08:57;100022.28;;;5.37;100.00
59170;BME280;52474;52.236;5.114;2024-03-02T06:11:24;100024.41;;;5.32;100.00
59170;BME280;52474;52.236;5.114;2024-03-02T06:13:50;100017.38;;;5.33;100.00
59170;BME280;52474;52.236;5.114;2024-03-02T06:16:15;100022.75;;;5.43;100.00
59170;BME280;52474;52.236;5.114;2024-03-02T06:18:41;100012.50;;;5.40;100.00
59170;BME280;52474;52.236;5.114;2024-03-02T06:21:06;100026.09;;;5.56;100.00
59170;BME280;52474;52.236;5.114;2024-03-02T06:23:32;100032.78;;;5.60;100.00
59170;BME280;52474;52.236;5.114;2024-03-02T06:25:58;100031.81;;;5.61;100.00
59170;BME280;52474;52.236;5.114;2024-03-02T06:28:23;100033.97;;;5.67;100.00
59170;BME280;52474;52.236;5.114;2024-03-02T06:30:49;100040.91;;;5.68;100.00
59170;BME280;52474;52.236;5.114;2024-03-02T06:33:15;100040.69;;;5.71;100.00
59170;BME280;52474;52.236;5.114;2024-03-02T06:35:40;100047.94;;;5.68;100.00
59170;BME280;52474;52.236;5.114;2024-03-02T06:38:06;100037.78;;;5.63;100.00
59170;BME280;52474;52.236;5.114;2024-03-02T06:40:32;100035.66;;;5.57;100.00
59170;BME280;52474;52.236;5.114;2024-03-02T06:42:57;100053.34;;;5.66;100.00
59170;BME280;52474;52.236;5.114;2024-03-02T06:45:23;100059.28;;;5.68;100.00
59170;BME280;52474;52.236;5.114;2024-03-02T06:47:49;100060.16;;;5.69;100.00
59170;BME280;52474;52.236;5.114;2024-03-02T06:50:15;100050.22;;;5.72;100.00
59170;BME280;52474;52.236;5.114;2024-03-02T06:52:40;100063.84;;;5.89;100.00
59170;BME280;52474;52.236;5.114;2024-03-02T06:55:06;100057.03;;;5.97;100.00
59170;BME280;52474;52.236;5.114;2024-03-02T06:57:33;100064.09;;;6.08;100.00
59170;BME280;52474;52.236;5.114;2024-03-02T06:59:59;100047.72;;;6.05;100.00
59170;BME280;52474;52.236;5.114;2024-03-02T07:02:25;100056.44;;;6.05;100.00
59170;BME280;52474;52.236;5.114;2024-03-02T07:04:53;100045.34;;;6.01;100.00
59170;BME280;52474;52.236;5.114;2024-03-02T07:07:19;100043.19;;;6.07;100.00
59170;BME280;52474;52.236;5.114;2024-03-02T07:09:45;100058.56;;;6.22;100.00
59170;BME280;52474;52.236;5.114;2024-03-02T07:12:11;100054.41;;;6.09;100.00
59170;BME280;52474;52.236;5.114;2024-03-02T07:14:36;100059.78;;;6.18;100.00
59170;BME280;52474;52.236;5.114;2024-03-02T07:17:20;100067.78;;;6.28;100.00
59170;BME280;52474;52.236;5.114;2024-03-02T07:19:46;100054.94;;;6.35;100.00
59170;BME280;52474;52.236;5.114;2024-03-02T07:22:12;100058.03;;;6.51;100.00
59170;BME280;52474;52.236;5.114;2024-03-02T07:24:41;100065.09;;;6.51;100.00
59170;BME280;52474;52.236;5.114;2024-03-02T07:27:08;100068.59;;;6.40;100.00
59170;BME280;52474;52.236;5.114;2024-03-02T07:29:33;100069.28;;;6.42;100.00
59170;BME280;52474;52.236;5.114;2024-03-02T07:31:59;100073.13;;;6.38;100.00
59170;BME280;52474;52.236;5.114;2024-03-02T07:34:25;100077.88;;;6.44;100.00
59170;BME280;52474;52.236;5.114;2024-03-02T07:36:50;100084.22;;;6.41;100.00
59170;BME280;52474;52.236;5.114;2024-03-02T07:39:16;100087.13;;;6.38;100.00
59170;BME280;52474;52.236;5.114;2024-03-02T07:41:42;100084.75;;;6.35;100.00
59170;BME280;52474;52.236;5.114;2024-03-02T07:44:09;100088.78;;;6.39;100.00
59170;BME280;52474;52.236;5.114;2024-03-02T07:46:35;100081.97;;;6.48;100.00
59170;BME280;52474;52.236;5.114;2024-03-02T07:49:00;100075.50;;;6.41;100.00
59170;BME280;52474;52.236;5.114;2024-03-02T07:51:26;100085.81;;;6.33;100.00
59170;BME280;52474;52.236;5.114;2024-03-02T07:53:52;100087.25;;;6.26;100.00
59170;BME280;52474;52.236;5.114;2024-03-02T07:56:17;100102.69;;;6.30;100.00
59170;BME280;52474;52.236;5.114;2024-03-02T07:58:48;100107.59;;;6.23;100.00
59170;BME280;52474;52.236;5.114;2024-03-02T08:01:14;100109.03;;;6.28;100.00
59170;BME280;52474;52.236;5.114;2024-03-02T08:03:40;100103.16;;;6.24;100.00
59170;BME280;52474;52.236;5.114;2024-03-02T08:06:06;100116.91;;;6.28;100.00
59170;BME280;52474;52.236;5.114;2024-03-02T08:08:32;100098.00;;;6.34;100.00
59170;BME280;52474;52.236;5.114;2024-03-02T08:10:58;100108.63;;;6.43;100.00
59170;BME280;52474;52.236;5.114;2024-03-02T08:13:23;100098.91;;;6.55;100.00
59170;BME280;52474;52.236;5.114;2024-03-02T08:15:49;100106.41;;;6.71;100.00
59170;BME280;52474;52.236;5.114;2024-03-02T08:18:15;100110.31;;;6.77;100.00
59170;BME280;52474;52.236;5.114;2024-03-02T08:20:41;100105.19;;;6.75;100.00
59170;BME280;52474;52.236;5.114;2024-03-02T08:23:06;100117.47;;;6.86;100.00
59170;BME280;52474;52.236;5.114;2024-03-02T08:25:33;100111.50;;;6.84;100.00
59170;BME280;52474;52.236;5.114;2024-03-02T08:27:59;100110.28;;;6.88;100.00
59170;BME280;52474;52.236;5.114;2024-03-02T08:30:25;100100.09;;;6.95;100.00
59170;BME280;52474;52.236;5.114;2024-03-02T08:32:51;100104.03;;;7.00;100.00
59170;BME280;52474;52.236;5.114;2024-03-02T08:35:17;100105.13;;;6.98;100.00
59170;BME280;52474;52.236;5.114;2024-03-02T08:37:43;100096.13;;;7.00;100.00
59170;BME280;52474;52.236;5.114;2024-03-02T08:40:11;100088.81;;;7.04;100.00
59170;BME280;52474;52.236;5.114;2024-03-02T08:42:38;100109.47;;;7.08;100.00
59170;BME280;52474;52.236;5.114;2024-03-02T08:45:03;100094.53;;;7.09;100.00
59170;BME280;52474;52.236;5.114;2024-03-02T08:47:29;100100.25;;;7.14;100.00
59170;BME280;52474;52.236;5.114;2024-03-02T08:49:55;100090.09;;;7.30;100.00
59170;BME280;52474;52.236;5.114;2024-03-02T08:52:21;100098.34;;;7.37;100.00
59170;BME280;52474;52.236;5.114;2024-03-02T08:54:46;100085.44;;;7.34;100.00
59170;BME280;52474;52.236;5.114;2024-03-02T08:57:12;100095.81;;;7.36;100.00
59170;BME280;52474;52.236;5.114;2024-03-02T08:59:38;100100.47;;;7.43;100.00
59170;BME280;52474;52.236;5.114;2024-03-02T09:02:04;100089.94;;;7.43;100.00
59170;BME280;52474;52.236;5.114;2024-03-02T09:04:30;100092.59;;;7.53;100.00
59170;BME280;52474;52.236;5.114;2024-03-02T09:06:55;100097.81;;;7.64;100.00
59170;BME280;52474;52.236;5.114;2024-03-02T09:09:21;100096.31;;;7.71;100.00
59170;BME280;52474;52.236;5.114;2024-03-02T09:11:47;100102.84;;;7.77;100.00
59170;BME280;52474;52.236;5.114;2024-03-02T09:14:12;100100.53;;;7.84;100.00
59170;BME280;52474;52.236;5.114;2024-03-02T09:16:40;100101.19;;;8.07;100.00
59170;BME280;52474;52.236;5.114;2024-03-02T09:19:05;100108.00;;;8.09;100.00
59170;BME280;52474;52.236;5.114;2024-03-02T09:21:31;100112.78;;;8.25;100.00
59170;BME280;52474;52.236;5.114;2024-03-02T09:23:57;100117.88;;;8.48;100.00
59170;BME280;52474;52.236;5.114;2024-03-02T09:26:22;100110.94;;;8.66;100.00
59170;BME280;52474;52.236;5.114;2024-03-02T09:28:50;100120.66;;;10.10;100.00
59170;BME280;52474;52.236;5.114;2024-03-02T09:31:17;100127.63;;;13.34;100.00
59170;BME280;52474;52.236;5.114;2024-03-02T09:33:42;100133.31;;;14.90;100.00
59170;BME280;52474;52.236;5.114;2024-03-02T09:36:21;100140.88;;;15.71;100.00
59170;BME280;52474;52.236;5.114;2024-03-02T09:38:48;100137.97;;;16.25;100.00
59170;BME280;52474;52.236;5.114;2024-03-02T09:41:14;100135.13;;;16.63;100.00
59170;BME280;52474;52.236;5.114;2024-03-02T09:43:40;100134.19;;;17.07;100.00
59170;BME280;52474;52.236;5.114;2024-03-02T09:46:08;100125.28;;;18.40;100.00
59170;BME280;52474;52.236;5.114;2024-03-02T09:48:34;100146.81;;;16.91;100.00
59170;BME280;52474;52.236;5.114;2024-03-02T09:51:00;100144.00;;;17.21;100.00
59170;BME280;52474;52.236;5.114;2024-03-02T09:53:31;100143.53;;;18.23;100.00
59170;BME280;52474;52.236;5.114;2024-03-02T09:55:59;100134.97;;;18.90;100.00
59170;BME280;52474;52.236;5.114;2024-03-02T09:58:25;100137.19;;;17.68;100.00
59170;BME280;52474;52.236;5.114;2024-03-02T10:00:50;100149.25;;;18.14;100.00
59170;BME280;52474;52.236;5.114;2024-03-02T10:03:18;100134.34;;;17.70;100.00
59170;BME280;52474;52.236;5.114;2024-03-02T10:05:44;100129.22;;;18.03;100.00
59170;BME280;52474;52.236;5.114;2024-03-02T10:08:09;100136.66;;;18.08;100.00
59170;BME280;52474;52.236;5.114;2024-03-02T10:10:39;100132.94;;;19.31;100.00
59170;BME280;52474;52.236;5.114;2024-03-02T10:13:06;100133.31;;;18.34;100.00
59170;BME280;52474;52.236;5.114;2024-03-02T10:15:33;100129.75;;;18.27;100.00
59170;BME280;52474;52.236;5.114;2024-03-02T10:17:59;100127.94;;;17.99;100.00
59170;BME280;52474;52.236;5.114;2024-03-02T10:20:26;100128.53;;;18.29;100.00
59170;BME280;52474;52.236;5.114;2024-03-02T10:22:55;100137.91;;;17.06;100.00
59170;BME280;52474;52.236;5.114;2024-03-02T10:25:31;100131.03;;;17.68;100.00
59170;BME280;52474;52.236;5.114;2024-03-02T10:27:58;100136.91;;;17.35;100.00
59170;BME280;52474;52.236;5.114;2024-03-02T10:30:28;100130.88;;;17.26;100.00
59170;BME280;52474;52.236;5.114;2024-03-02T10:32:54;100123.16;;;17.38;100.00
59170;BME280;52474;52.236;5.114;2024-03-02T10:35:22;100121.47;;;17.87;100.00
59170;BME280;52474;52.236;5.114;2024-03-02T10:37:49;100124.31;;;18.55;100.00
59170;BME280;52474;52.236;5.114;2024-03-02T10:40:15;100118.19;;;18.19;100.00
59170;BME280;52474;52.236;5.114;2024-03-02T10:42:44;100122.38;;;18.83;100.00
59170;BME280;52474;52.236;5.114;2024-03-02T10:45:12;100116.03;;;19.44;100.00
59170;BME280;52474;52.236;5.114;2024-03-02T10:47:40;100108.28;;;20.14;100.00
59170;BME280;52474;52.236;5.114;2024-03-02T10:50:07;100114.78;;;19.00;100.00
59170;BME280;52474;52.236;5.114;2024-03-02T10:52:39;100123.47;;;19.69;98.81
59170;BME280;52474;52.236;5.114;2024-03-02T10:55:09;100099.34;;;22.41;94.51
59170;BME280;52474;52.236;5.114;2024-03-02T10:57:40;100108.03;;;21.63;85.30
59170;BME280;52474;52.236;5.114;2024-03-02T11:00:08;100098.78;;;20.70;88.01
59170;BME280;52474;52.236;5.114;2024-03-02T11:02:50;100095.19;;;21.15;87.10
59170;BME280;52474;52.236;5.114;2024-03-02T11:05:26;100103.50;;;21.07;85.96
59170;BME280;52474;52.236;5.114;2024-03-02T11:08:05;100101.38;;;21.47;87.05
59170;BME280;52474;52.236;5.114;2024-03-02T11:10:36;100091.38;;;20.59;82.59
59170;BME280;52474;52.236;5.114;2024-03-02T11:13:09;100106.72;;;19.00;97.91
59170;BME280;52474;52.236;5.114;2024-03-02T11:15:35;100107.84;;;20.24;90.79
59170;BME280;52474;52.236;5.114;2024-03-02T11:18:04;100115.16;;;17.94;100.00
59170;BME280;52474;52.236;5.114;2024-03-02T11:20:38;100102.41;;;19.33;100.00
59170;BME280;52474;52.236;5.114;2024-03-02T11:23:08;100108.38;;;19.41;96.46
59170;BME280;52474;52.236;5.114;2024-03-02T11:25:35;100102.41;;;19.59;90.44
59170;BME280;52474;52.236;5.114;2024-03-02T11:28:02;100094.94;;;19.21;96.94
59170;BME280;52474;52.236;5.114;2024-03-02T11:32:57;100096.66;;;20.34;96.29
59170;BME280;52474;52.236;5.114;2024-03-02T11:35:25;100090.38;;;18.82;89.13
59170;BME280;52474;52.236;5.114;2024-03-02T11:37:51;100090.41;;;19.42;96.68
59170;BME280;52474;52.236;5.114;2024-03-02T11:40:24;100095.16;;;19.06;88.53
59170;BME280;52474;52.236;5.114;2024-03-02T11:42:50;100100.72;;;19.31;85.90
59170;BME280;52474;52.236;5.114;2024-03-02T11:45:17;100096.03;;;20.32;84.50
59170;BME280;52474;52.236;5.114;2024-03-02T11:47:50;100080.72;;;18.39;91.98
59170;BME280;52474;52.236;5.114;2024-03-02T11:50:15;100084.03;;;20.28;87.70
59170;BME280;52474;52.236;5.114;2024-03-02T11:52:42;100070.88;;;21.90;83.10
59170;BME280;52474;52.236;5.114;2024-03-02T11:55:08;100075.72;;;22.00;77.36
59170;BME280;52474;52.236;5.114;2024-03-02T11:57:35;100088.91;;;21.90;73.67
59170;BME280;52474;52.236;5.114;2024-03-02T12:00:00;100087.19;;;22.32;72.65
59170;BME280;52474;52.236;5.114;2024-03-02T12:02:30;100093.75;;;20.80;79.17
59170;BME280;52474;52.236;5.114;2024-03-02T12:04:57;100087.84;;;20.13;84.67
59170;BME280;52474;52.236;5.114;2024-03-02T12:07:23;100083.22;;;22.95;77.90
59170;BME280;52474;52.236;5.114;2024-03-02T12:09:59;100073.38;;;20.59;79.49
59170;BME280;52474;52.236;5.114;2024-03-02T12:12:25;100085.44;;;19.59;81.56
59170;BME280;52474;52.236;5.114;2024-03-02T12:14:53;100067.41;;;19.92;78.86
59170;BME280;52474;52.236;5.114;2024-03-02T12:17:21;100065.59;;;18.12;85.32
59170;BME280;52474;52.236;5.114;2024-03-02T12:19:47;100054.59;;;17.72;98.73
59170;BME280;52474;52.236;5.114;2024-03-02T12:22:13;100054.28;;;19.44;93.82
59170;BME280;52474;52.236;5.114;2024-03-02T12:24:39;100059.66;;;18.30;100.00
59170;BME280;52474;52.236;5.114;2024-03-02T12:27:08;100029.25;;;20.29;90.99
59170;BME280;52474;52.236;5.114;2024-03-02T12:29:34;100029.72;;;19.01;84.64
59170;BME280;52474;52.236;5.114;2024-03-02T12:32:12;100024.59;;;21.75;81.88
59170;BME280;52474;52.236;5.114;2024-03-02T12:34:54;100022.34;;;22.57;70.72
59170;BME280;52474;52.236;5.114;2024-03-02T12:37:20;100045.09;;;21.57;71.75
59170;BME280;52474;52.236;5.114;2024-03-02T12:39:46;100032.94;;;20.34;78.80
59170;BME280;52474;52.236;5.114;2024-03-02T12:42:12;100029.06;;;20.24;80.08
59170;BME280;52474;52.236;5.114;2024-03-02T12:44:37;100028.41;;;20.28;75.61
59170;BME280;52474;52.236;5.114;2024-03-02T12:47:05;100021.91;;;19.98;79.08
59170;BME280;52474;52.236;5.114;2024-03-02T12:49:33;100018.06;;;19.73;76.80
59170;BME280;52474;52.236;5.114;2024-03-02T12:52:00;100020.41;;;18.77;75.36
59170;BME280;52474;52.236;5.114;2024-03-02T12:54:26;100020.78;;;18.67;76.28
59170;BME280;52474;52.236;5.114;2024-03-02T12:56:52;100022.69;;;18.93;80.63